Time;durP1;ratioP1;P1;durP2;ratioP2;P2;SDS_P1;SDS_P2;PMS_P1;PMS_P2;Temp;Humidity;BMP_temperature;BMP_pressure;BME280_temperature;BME280_humidity;BME280_pressure;Samples;Min_cycle;Max_cycle;Signal;HPM_P1;HPM_P2
2022/12/30 00:01:12;;;;;;;1.15;0.40;;;12.50;73.40;;;;;;2295177;55;20913;-85
2022/12/30 00:03:38;;;;;;;1.37;0.43;;;12.50;73.40;;;;;;2290281;55;20962;-85
2022/12/30 00:06:05;;;;;;;1.27;0.50;;;12.50;73.40;;;;;;2520247;54;20922;-84
2022/12/30 00:08:47;;;;;;;0.98;0.40;;;12.50;73.50;;;;;;2289041;55;20981;-85
2022/12/30 00:11:39;;;;;;;1.55;0.43;;;12.50;73.50;;;;;;2288212;55;20952;-84
2022/12/30 00:34:11;;;;;;;2.15;0.60;;;12.40;73.40;;;;;;2529352;54;21323;-85
2022/12/30 00:36:37;;;;;;;1.52;0.50;;;12.40;73.40;;;;;;2529405;54;20966;-86
2022/12/30 00:39:03;;;;;;;1.20;0.50;;;12.40;73.40;;;;;;2528886;54;20913;-85
2022/12/30 00:44:14;;;;;;;1.73;0.50;;;12.40;73.40;;;;;;2295444;55;20938;-86
2022/12/30 00:46:41;;;;;;;1.98;0.60;;;12.40;73.30;;;;;;2529678;54;20941;-86
2022/12/30 00:57:23;;;;;;;1.20;0.50;;;12.30;73.30;;;;;;2529671;53;21462;-84
2022/12/30 00:59:50;;;;;;;1.10;0.43;;;12.30;73.30;;;;;;2529281;53;20966;-87
2022/12/30 01:02:16;;;;;;;0.95;0.32;;;12.30;73.30;;;;;;2296053;53;21490;-86
2022/12/30 01:04:43;;;;;;;1.12;0.50;;;12.30;73.30;;;;;;2528667;54;20986;-85
2022/12/30 01:07:09;;;;;;;1.20;0.40;;;12.20;73.30;;;;;;2527820;54;21704;-85
2022/12/30 01:09:35;;;;;;;1.05;0.40;;;12.20;73.30;;;;;;2528837;54;21006;-85
2022/12/30 01:12:07;;;;;;;0.98;0.50;;;12.20;73.30;;;;;;2528023;54;20970;-86
2022/12/30 01:14:47;;;;;;;1.73;0.50;;;12.20;73.30;;;;;;2295208;55;20977;-85
2022/12/30 01:17:21;;;;;;;1.40;0.50;;;12.20;73.20;;;;;;2321914;55;20942;-84
2022/12/30 01:19:47;;;;;;;0.90;0.40;;;12.20;73.30;;;;;;2304883;55;20961;-86
2022/12/30 01:22:14;;;;;;;1.15;0.40;;;12.20;73.30;;;;;;2562787;54;20930;-85
2022/12/30 01:24:40;;;;;;;1.67;0.45;;;12.20;73.30;;;;;;2563573;54;21033;-85
2022/12/30 01:27:06;;;;;;;0.50;0.30;;;12.20;73.20;;;;;;2562583;54;20915;-88
2022/12/30 01:29:36;;;;;;;0.32;0.30;;;12.10;73.10;;;;;;2562604;54;21045;-86
2022/12/30 01:32:10;;;;;;;0.77;0.40;;;12.10;73.10;;;;;;2323628;55;20954;-88
2022/12/30 01:34:36;;;;;;;0.60;0.30;;;12.10;72.80;;;;;;2561941;54;20905;-87
2022/12/30 01:37:03;;;;;;;1.40;0.22;;;12.10;73.00;;;;;;2323479;55;25426;-87
2022/12/30 01:39:29;;;;;;;0.73;0.37;;;12.10;72.90;;;;;;2322749;55;20945;-86
2022/12/30 01:41:55;;;;;;;0.93;0.22;;;12.00;72.70;;;;;;2559579;54;21550;-84
2022/12/30 01:46:14;;;;;;;0.93;0.30;;;12.00;72.60;;;;;;2323304;55;20970;-86
2022/12/30 01:48:40;;;;;;;0.32;0.20;;;12.00;72.20;;;;;;2557540;53;21823;-85
2022/12/30 01:51:18;;;;;;;0.90;0.30;;;11.90;72.40;;;;;;2563169;53;20797;-88
2022/12/30 01:53:46;;;;;;;0.62;0.30;;;11.90;72.10;;;;;;2564112;53;20899;-89
2022/12/30 01:56:16;;;;;;;0.68;0.30;;;11.90;72.40;;;;;;2563397;53;21578;-88
2022/12/30 01:58:51;;;;;;;2.08;0.40;;;11.80;72.30;;;;;;2321950;55;20915;-88
2022/12/30 02:01:18;;;;;;;0.90;0.40;;;11.80;72.40;;;;;;2562982;53;20947;-88
2022/12/30 02:03:46;;;;;;;0.90;0.30;;;11.70;72.30;;;;;;2563969;53;21721;-88
2022/12/30 02:06:15;;;;;;;0.85;0.30;;;11.70;72.40;;;;;;2531430;53;20920;-87
2022/12/30 02:08:41;;;;;;;0.50;0.20;;;11.50;72.20;;;;;;2321558;54;20991;-85
2022/12/30 02:11:07;;;;;;;0.90;0.40;;;11.60;72.30;;;;;;2560657;53;20900;-88
2022/12/30 02:13:34;;;;;;;1.35;0.40;;;11.60;72.40;;;;;;2561150;53;21767;-88
2022/12/30 02:16:37;;;;;;;0.73;0.30;;;11.70;72.50;;;;;;2321520;54;21004;-88
2022/12/30 02:22:08;;;;;;;1.17;0.40;;;11.60;72.10;;;;;;2321229;54;20994;-88
2022/12/30 02:25:01;;;;;;;0.60;0.28;;;11.50;71.50;;;;;;2321303;54;20883;-88
2022/12/30 02:27:54;;;;;;;1.33;0.40;;;11.50;72.00;;;;;;2561078;53;21880;-88
2022/12/30 02:31:46;;;;;;;1.08;0.50;;;11.50;72.30;;;;;;2560638;53;20948;-88
2022/12/30 02:47:22;;;;;;;1.25;0.43;;;11.30;72.40;;;;;;2559375;53;21853;-88
2022/12/30 02:52:42;;;;;;;1.20;0.43;;;11.20;72.70;;;;;;2319288;53;20844;-89
2022/12/30 02:55:09;;;;;;;1.37;0.47;;;11.20;72.90;;;;;;2319273;53;20884;-88
2022/12/30 02:57:35;;;;;;;0.90;0.40;;;11.20;73.10;;;;;;2559136;53;21728;-88
2022/12/30 03:07:37;;;;;;;1.98;0.30;;;11.20;73.30;;;;;;2559792;53;20931;-88
2022/12/30 03:11:37;;;;;;;0.30;0.28;;;11.20;72.70;;;;;;2561357;53;20947;-90
2022/12/30 03:14:30;;;;;;;1.15;0.50;;;11.20;73.40;;;;;;2563968;53;21066;-88
2022/12/30 03:16:59;;;;;;;1.50;0.50;;;11.30;73.40;;;;;;2323327;53;21002;-87
2022/12/30 03:19:27;;;;;;;1.30;0.30;;;11.20;73.70;;;;;;2563324;53;20903;-89
2022/12/30 03:21:53;;;;;;;2.80;0.43;;;11.30;73.90;;;;;;2323280;53;20931;-86
2022/12/30 03:27:07;;;;;;;0.88;0.40;;;11.30;74.00;;;;;;2563298;53;20939;-88
2022/12/30 03:30:35;;;;;;;0.88;0.30;;;11.30;74.00;;;;;;2563652;53;20951;-88
2022/12/30 03:33:02;;;;;;;2.00;0.22;;;11.40;73.30;;;;;;2323039;53;21059;-89
2022/12/30 03:35:28;;;;;;;1.00;0.30;;;11.40;74.00;;;;;;2563319;53;20927;-87
2022/12/30 03:37:55;;;;;;;0.68;0.25;;;11.40;74.00;;;;;;2563108;53;22110;-88
2022/12/30 03:40:29;;;;;;;0.82;0.30;;;11.40;73.90;;;;;;2322366;53;21234;-87
2022/12/30 03:42:55;;;;;;;2.55;0.40;;;11.40;73.80;;;;;;2323255;53;20958;-89
2022/12/30 03:45:21;;;;;;;1.35;0.40;;;11.40;73.80;;;;;;2563124;53;20975;-88
2022/12/30 03:47:47;;;;;;;1.12;0.30;;;11.40;73.70;;;;;;2322961;53;21111;-87
2022/12/30 03:50:14;;;;;;;0.85;0.25;;;11.40;73.60;;;;;;2322328;53;20986;-88
2022/12/30 03:52:40;;;;;;;1.25;0.30;;;11.40;73.50;;;;;;2563408;53;20884;-87
2022/12/30 03:55:07;;;;;;;2.45;0.40;;;11.50;73.50;;;;;;2322993;53;20959;-86
2022/12/30 03:57:33;;;;;;;1.12;0.25;;;11.50;73.30;;;;;;2563986;53;21428;-86
2022/12/30 04:00:00;;;;;;;1.80;0.30;;;11.50;73.30;;;;;;2323666;53;20895;-85
2022/12/30 04:02:26;;;;;;;1.05;0.30;;;11.50;73.20;;;;;;2564675;53;21026;-85
2022/12/30 04:04:53;;;;;;;1.12;0.30;;;11.50;73.10;;;;;;2564605;53;21483;-84
2022/12/30 04:07:21;;;;;;;0.73;0.30;;;11.50;73.00;;;;;;2564711;53;20904;-88
2022/12/30 04:09:47;;;;;;;0.68;0.25;;;11.50;72.90;;;;;;2323994;53;20880;-89
2022/12/30 04:12:13;;;;;;;1.30;0.50;;;11.40;72.80;;;;;;2323394;53;20872;-88
2022/12/30 04:14:39;;;;;;;1.05;0.40;;;11.40;72.70;;;;;;2565319;53;20968;-88
2022/12/30 04:17:06;;;;;;;1.67;0.80;;;11.40;72.70;;;;;;2564241;53;21492;-87
2022/12/30 04:19:32;;;;;;;1.95;0.57;;;11.40;72.60;;;;;;2564354;53;20915;-87
2022/12/30 04:21:58;;;;;;;1.20;0.30;;;11.40;72.60;;;;;;2563735;53;21465;-88
2022/12/30 04:24:25;;;;;;;1.30;0.40;;;11.30;72.50;;;;;;2534654;53;20879;-88
2022/12/30 04:26:52;;;;;;;1.08;0.37;;;11.30;72.40;;;;;;2564572;53;20908;-88
2022/12/30 04:29:18;;;;;;;1.92;0.30;;;11.30;72.40;;;;;;2322468;53;22046;-88
2022/12/30 04:31:44;;;;;;;1.40;0.40;;;11.30;72.50;;;;;;2323280;53;20916;-88
2022/12/30 04:34:14;;;;;;;1.08;0.30;;;11.20;72.40;;;;;;2563755;53;21750;-87
2022/12/30 04:36:41;;;;;;;1.45;0.40;;;11.20;72.50;;;;;;2323720;53;20910;-88
2022/12/30 04:39:08;;;;;;;1.60;0.35;;;11.20;72.50;;;;;;2563340;53;20924;-88
2022/12/30 04:41:34;;;;;;;0.60;0.28;;;11.20;72.50;;;;;;2563669;53;20931;-88
2022/12/30 04:44:03;;;;;;;1.10;0.30;;;11.20;72.60;;;;;;2563609;53;21003;-88
2022/12/30 04:46:29;;;;;;;0.82;0.30;;;11.20;72.50;;;;;;2323551;53;20990;-88
2022/12/30 04:48:56;;;;;;;2.55;0.30;;;11.20;72.50;;;;;;2563562;53;20970;-88
2022/12/30 04:51:22;;;;;;;1.48;0.30;;;11.10;72.40;;;;;;2322573;53;21023;-87
2022/12/30 04:53:48;;;;;;;1.48;0.30;;;11.10;72.50;;;;;;2565039;53;22094;-85
2022/12/30 04:56:15;;;;;;;1.10;0.20;;;11.10;72.30;;;;;;2563912;53;20912;-88
2022/12/30 04:58:43;;;;;;;1.12;0.30;;;11.10;72.40;;;;;;2564697;53;20927;-88
2022/12/30 05:01:09;;;;;;;0.75;0.30;;;11.10;72.50;;;;;;2323950;53;20904;-88
2022/12/30 05:03:36;;;;;;;1.27;0.25;;;11.00;72.40;;;;;;2565338;53;20935;-88
2022/12/30 05:06:02;;;;;;;1.92;0.47;;;11.00;72.40;;;;;;2564347;53;21765;-87
2022/12/30 05:08:28;;;;;;;1.42;0.50;;;11.00;72.40;;;;;;2564232;53;20955;-88
2022/12/30 05:10:55;;;;;;;0.57;0.20;;;11.00;72.40;;;;;;2323972;53;20987;-86
2022/12/30 05:13:21;;;;;;;0.57;0.20;;;11.00;72.40;;;;;;2324248;53;20943;-87
2022/12/30 05:15:47;;;;;;;1.67;0.30;;;11.00;72.50;;;;;;2324062;53;20986;-87
2022/12/30 05:18:16;;;;;;;0.50;0.30;;;11.00;72.60;;;;;;2322652;53;20908;-88
2022/12/30 05:20:42;;;;;;;0.98;0.30;;;10.80;72.30;;;;;;2562843;53;21050;-87
2022/12/30 05:26:13;;;;;;;2.05;0.30;;;10.90;72.50;;;;;;2322397;53;20915;-86
2022/12/30 05:28:39;;;;;;;1.95;0.28;;;10.90;72.50;;;;;;2562951;53;21002;-88
2022/12/30 05:31:06;;;;;;;1.17;0.25;;;10.90;72.40;;;;;;2562928;53;20987;-88
2022/12/30 05:33:32;;;;;;;1.17;0.30;;;10.90;72.50;;;;;;2562945;53;20994;-87
2022/12/30 05:35:58;;;;;;;2.00;0.45;;;10.90;72.50;;;;;;2563059;53;21046;-88
2022/12/30 05:38:25;;;;;;;0.77;0.30;;;10.90;72.60;;;;;;2563743;53;21006;-88
2022/12/30 05:40:52;;;;;;;1.67;0.37;;;10.90;72.60;;;;;;2564814;53;21704;-88
2022/12/30 05:43:18;;;;;;;0.68;0.28;;;10.90;72.60;;;;;;2324034;53;20952;-87
2022/12/30 05:45:45;;;;;;;1.67;0.30;;;10.80;72.50;;;;;;2324388;53;20824;-88
2022/12/30 05:48:12;;;;;;;0.45;0.20;;;10.80;72.50;;;;;;2564681;53;21741;-87
2022/12/30 05:50:39;;;;;;;1.15;0.35;;;10.80;72.50;;;;;;2565135;53;20927;-87
2022/12/30 05:53:05;;;;;;;1.30;0.25;;;10.80;72.50;;;;;;2564490;53;20931;-87
2022/12/30 05:55:32;;;;;;;0.47;0.22;;;10.80;72.60;;;;;;2564492;53;20987;-88
2022/12/30 05:57:58;;;;;;;1.70;0.30;;;10.80;72.60;;;;;;2564568;53;20867;-86
2022/12/30 06:00:25;;;;;;;0.77;0.30;;;10.80;72.60;;;;;;2564272;53;20912;-88
2022/12/30 06:02:51;;;;;;;2.37;0.35;;;10.80;72.60;;;;;;2324179;53;21237;-87
2022/12/30 06:05:17;;;;;;;1.33;0.30;;;10.80;72.60;;;;;;2564429;53;20903;-86
2022/12/30 06:07:44;;;;;;;0.82;0.30;;;10.80;72.60;;;;;;2565176;53;20817;-87
2022/12/30 06:10:10;;;;;;;2.53;0.45;;;10.80;72.60;;;;;;2532770;53;20929;-87
2022/12/30 06:12:36;;;;;;;1.60;0.37;;;10.70;72.50;;;;;;2565150;53;20920;-87
2022/12/30 06:15:03;;;;;;;0.43;0.20;;;10.70;72.50;;;;;;2564844;53;20863;-87
2022/12/30 06:17:33;;;;;;;0.52;0.28;;;10.70;72.60;;;;;;2564730;53;21258;-88
2022/12/30 06:19:59;;;;;;;1.98;0.30;;;10.70;72.60;;;;;;2564478;53;20946;-87
2022/12/30 06:22:25;;;;;;;2.03;0.40;;;10.70;72.60;;;;;;2564663;53;20916;-88
2022/12/30 06:24:52;;;;;;;0.77;0.32;;;10.70;72.70;;;;;;2565227;53;20899;-87
2022/12/30 06:27:19;;;;;;;2.35;0.40;;;10.70;72.60;;;;;;2564707;53;20917;-87
2022/12/30 06:29:47;;;;;;;1.40;0.30;;;10.70;72.70;;;;;;2564615;53;20892;-87
2022/12/30 06:32:13;;;;;;;4.05;0.80;;;10.70;72.70;;;;;;2564606;53;21611;-87
2022/12/30 06:34:39;;;;;;;1.87;0.77;;;10.70;72.80;;;;;;2565104;53;20951;-87
2022/12/30 06:37:05;;;;;;;4.47;0.60;;;10.70;72.80;;;;;;2324721;53;21922;-87
2022/12/30 06:39:32;;;;;;;1.90;0.70;;;10.70;72.80;;;;;;2323967;53;21294;-88
2022/12/30 06:41:58;;;;;;;1.70;0.60;;;10.70;72.80;;;;;;2565106;53;21482;-87
2022/12/30 06:44:24;;;;;;;1.23;0.47;;;10.70;72.80;;;;;;2564733;53;20980;-87
2022/12/30 06:46:50;;;;;;;2.45;0.60;;;10.70;72.80;;;;;;2324894;53;20972;-87
2022/12/30 06:49:17;;;;;;;1.55;0.45;;;10.70;72.80;;;;;;2564937;53;21281;-87
2022/12/30 06:51:43;;;;;;;0.77;0.30;;;10.80;72.90;;;;;;2324947;53;20899;-87
2022/12/30 06:54:09;;;;;;;2.30;0.50;;;10.70;72.80;;;;;;2564686;53;20928;-87
2022/12/30 06:56:36;;;;;;;1.65;0.60;;;10.70;72.70;;;;;;2324710;53;21356;-87
2022/12/30 06:59:02;;;;;;;1.00;0.40;;;10.70;72.70;;;;;;2563996;53;20923;-87
2022/12/30 07:01:28;;;;;;;3.42;0.52;;;10.70;72.70;;;;;;2323959;53;20907;-87
2022/12/30 07:03:55;;;;;;;1.60;0.45;;;10.70;72.70;;;;;;2564722;53;21018;-87
2022/12/30 07:06:21;;;;;;;2.78;0.50;;;10.70;72.60;;;;;;2564710;53;20959;-86
2022/12/30 07:08:47;;;;;;;0.90;0.30;;;10.70;72.60;;;;;;2564762;53;20904;-87
2022/12/30 07:11:14;;;;;;;0.77;0.37;;;10.80;72.70;;;;;;2564349;53;21586;-87
2022/12/30 07:13:40;;;;;;;2.90;0.40;;;10.70;72.60;;;;;;2324356;53;20918;-87
2022/12/30 07:16:06;;;;;;;1.50;0.30;;;10.70;72.60;;;;;;2323850;53;20908;-86
2022/12/30 07:18:33;;;;;;;1.55;0.40;;;10.70;72.50;;;;;;2564346;53;21531;-87
2022/12/30 07:20:59;;;;;;;1.80;0.50;;;10.70;72.50;;;;;;2563507;53;20940;-87
2022/12/30 07:23:25;;;;;;;2.53;0.45;;;10.70;72.50;;;;;;2563732;53;21302;-87
2022/12/30 07:25:52;;;;;;;1.73;0.50;;;10.60;72.40;;;;;;2564629;53;20934;-87
2022/12/30 07:28:18;;;;;;;2.83;0.45;;;10.60;72.30;;;;;;2563544;53;21801;-86
2022/12/30 07:30:44;;;;;;;1.75;0.40;;;10.60;72.20;;;;;;2564536;53;20886;-87
2022/12/30 07:33:10;;;;;;;1.23;0.50;;;10.60;72.20;;;;;;2311723;53;20998;-87
2022/12/30 07:35:37;;;;;;;2.12;0.60;;;10.60;72.20;;;;;;2314726;53;22016;-88
2022/12/30 07:38:03;;;;;;;1.65;0.70;;;10.60;72.00;;;;;;2564075;53;20916;-87
2022/12/30 07:40:30;;;;;;;1.80;0.70;;;10.60;71.90;;;;;;2564681;53;21302;-86
2022/12/30 07:42:56;;;;;;;2.53;1.15;;;10.50;71.70;;;;;;2564782;53;20911;-87
2022/12/30 07:45:22;;;;;;;3.58;1.50;;;10.50;71.60;;;;;;2323941;53;20888;-88
2022/12/30 07:47:49;;;;;;;2.97;1.52;;;10.50;71.60;;;;;;2324086;53;20911;-87
2022/12/30 07:50:15;;;;;;;4.00;2.10;;;10.40;71.40;;;;;;2563569;53;20943;-86
2022/12/30 07:52:41;;;;;;;3.33;1.65;;;10.40;71.40;;;;;;2324444;53;20895;-88
2022/12/30 07:55:09;;;;;;;4.00;2.10;;;10.40;71.50;;;;;;2323662;53;20998;-87
2022/12/30 07:57:35;;;;;;;4.25;2.37;;;10.30;71.40;;;;;;2564099;53;20947;-86
2022/12/30 08:00:02;;;;;;;5.78;2.87;;;10.30;71.40;;;;;;2563158;53;20947;-85
2022/12/30 08:02:28;;;;;;;4.62;2.65;;;10.30;71.40;;;;;;2564241;53;21666;-87
2022/12/30 08:04:55;;;;;;;4.30;2.40;;;10.20;71.30;;;;;;2324364;53;21553;-87
2022/12/30 08:07:22;;;;;;;3.58;1.83;;;10.20;71.30;;;;;;2564251;53;21800;-84
2022/12/30 08:09:48;;;;;;;3.12;1.40;;;10.20;71.40;;;;;;2564488;53;21475;-86
2022/12/30 08:12:14;;;;;;;3.55;1.33;;;10.20;71.40;;;;;;2563278;53;20943;-86
2022/12/30 08:14:40;;;;;;;2.65;1.42;;;10.10;71.30;;;;;;2564662;53;21740;-86
2022/12/30 08:17:07;;;;;;;4.22;2.05;;;10.10;71.40;;;;;;2564167;53;20900;-85
2022/12/30 08:19:33;;;;;;;4.12;2.33;;;10.10;71.50;;;;;;2323699;53;20899;-86
2022/12/30 08:21:59;;;;;;;4.12;2.72;;;10.10;71.50;;;;;;2564201;53;20923;-85
2022/12/30 08:24:26;;;;;;;4.82;2.72;;;10.00;71.50;;;;;;2563957;53;20927;-86
2022/12/30 08:26:52;;;;;;;3.85;2.40;;;10.00;71.60;;;;;;2324181;53;22039;-86
2022/12/30 08:29:18;;;;;;;3.85;2.03;;;10.00;71.70;;;;;;2323691;53;20869;-86
2022/12/30 08:31:49;;;;;;;3.20;1.90;;;10.00;71.80;;;;;;2562671;53;20899;-85
2022/12/30 08:34:17;;;;;;;3.58;1.95;;;10.10;71.90;;;;;;2561380;53;20975;-85
2022/12/30 08:36:43;;;;;;;5.37;2.37;;;10.00;71.90;;;;;;2323023;53;20935;-85
2022/12/30 08:39:09;;;;;;;5.18;2.78;;;10.00;72.00;;;;;;2321979;53;20931;-85
2022/12/30 08:41:41;;;;;;;7.68;3.60;;;10.00;72.10;;;;;;2561363;53;20915;-84
2022/12/30 08:44:07;;;;;;;8.35;3.45;;;10.00;72.20;;;;;;2321837;53;20931;-84
2022/12/30 08:46:34;;;;;;;6.37;2.47;;;10.00;72.50;;;;;;2322224;53;21775;-84
2022/12/30 08:49:00;;;;;;;4.72;2.08;;;10.00;72.70;;;;;;2561182;53;20923;-86
2022/12/30 08:51:28;;;;;;;3.33;1.52;;;10.00;72.90;;;;;;2323385;53;20919;-87
2022/12/30 08:53:54;;;;;;;4.75;1.58;;;10.00;73.00;;;;;;2563243;53;21018;-86
2022/12/30 08:56:28;;;;;;;3.35;1.27;;;10.00;73.30;;;;;;2563860;53;21351;-85
2022/12/30 08:58:54;;;;;;;2.53;1.20;;;10.10;73.50;;;;;;2563922;53;20948;-86
2022/12/30 09:01:30;;;;;;;4.78;1.20;;;10.10;73.60;;;;;;2323764;53;21033;-86
2022/12/30 09:03:57;;;;;;;2.95;1.10;;;10.20;73.80;;;;;;2322470;53;20904;-86
2022/12/30 09:06:24;;;;;;;2.33;1.02;;;10.20;73.80;;;;;;2563883;53;20955;-85
2022/12/30 09:08:51;;;;;;;3.05;1.30;;;10.20;73.90;;;;;;2564833;53;20924;-87
2022/12/30 09:11:22;;;;;;;2.90;1.02;;;10.30;74.00;;;;;;2562866;53;20983;-85
2022/12/30 09:13:48;;;;;;;3.03;1.17;;;10.40;74.10;;;;;;2564514;53;20947;-86
2022/12/30 09:16:17;;;;;;;1.62;0.62;;;10.40;74.30;;;;;;2563447;53;20923;-86
2022/12/30 09:18:44;;;;;;;1.95;0.60;;;10.50;74.40;;;;;;2564718;53;21010;-86
2022/12/30 09:21:10;;;;;;;1.55;0.60;;;10.50;74.40;;;;;;2563332;53;21014;-87
2022/12/30 09:23:36;;;;;;;0.70;0.40;;;10.50;74.40;;;;;;2563739;53;20931;-87
2022/12/30 09:26:03;;;;;;;1.27;0.40;;;10.60;74.50;;;;;;2563077;53;21554;-87
2022/12/30 09:28:30;;;;;;;1.23;0.37;;;10.70;74.70;;;;;;2564104;53;21027;-86
2022/12/30 09:30:56;;;;;;;0.98;0.43;;;10.70;74.70;;;;;;2564121;53;20907;-87
2022/12/30 09:33:23;;;;;;;0.90;0.40;;;10.80;74.80;;;;;;2563060;53;20935;-87
2022/12/30 09:35:49;;;;;;;2.03;0.47;;;10.90;74.90;;;;;;2323844;53;20942;-86
2022/12/30 09:38:15;;;;;;;1.80;0.50;;;10.90;74.90;;;;;;2563243;53;20943;-86
2022/12/30 09:41:02;;;;;;;0.82;0.35;;;11.00;75.00;;;;;;2560951;53;21376;-85
2022/12/30 09:43:55;;;;;;;1.35;0.40;;;11.10;74.80;;;;;;2303759;53;20997;-86
2022/12/30 09:46:40;;;;;;;;;;;11.10;74.70;;;;;;2326794;53;20970;-86
2022/12/30 09:49:28;;;;;;;5.03;0.35;;;11.20;74.00;;;;;;2562929;53;20632;-86
2022/12/30 09:52:04;;;;;;;1.37;0.40;;;11.30;74.60;;;;;;2323889;53;20899;-84
2022/12/30 09:54:31;;;;;;;1.12;0.40;;;11.40;75.10;;;;;;2564389;53;20887;-86
2022/12/30 09:57:30;;;;;;;0.93;0.30;;;11.40;75.20;;;;;;2323775;53;20995;-86
2022/12/30 10:00:01;;;;;;;3.42;0.43;;;11.50;75.30;;;;;;2562940;53;20887;-86
2022/12/30 10:02:28;;;;;;;1.48;0.30;;;11.60;75.30;;;;;;2324101;53;20899;-86
2022/12/30 10:04:55;;;;;;;0.62;0.20;;;11.60;75.90;;;;;;2564830;53;20875;-88
2022/12/30 10:07:32;;;;;;;0.62;0.30;;;11.70;75.20;;;;;;2564170;53;21709;-86
2022/12/30 10:10:06;;;;;;;0.77;0.32;;;11.80;74.90;;;;;;2323374;53;20972;-87
2022/12/30 10:13:02;;;;;;;0.88;0.30;;;11.80;75.10;;;;;;2563994;53;20911;-87
2022/12/30 10:16:09;;;;;;;1.80;0.40;;;11.90;74.70;;;;;;2565056;53;21365;-88
2022/12/30 10:19:03;;;;;;;1.12;0.40;;;12.00;74.60;;;;;;2302707;53;21002;-84
2022/12/30 10:23:02;;;;;;;0.22;0.20;;;12.10;74.50;;;;;;2563779;53;21014;-87
2022/12/30 10:26:24;;;;;;;0.62;0.28;;;12.20;73.80;;;;;;2323703;53;21712;-87
2022/12/30 10:29:04;;;;;;;1.52;0.30;;;12.20;74.70;;;;;;2564807;53;21333;-86
2022/12/30 10:31:33;;;;;;;0.82;0.37;;;12.30;74.60;;;;;;2564383;53;21078;-87
2022/12/30 10:34:13;;;;;;;0.60;0.35;;;12.30;75.00;;;;;;2564983;53;20958;-86
2022/12/30 10:36:59;;;;;;;2.37;0.50;;;12.40;74.80;;;;;;2564599;53;20971;-86
2022/12/30 10:39:29;;;;;;;0.70;0.30;;;12.50;74.50;;;;;;2564655;53;20908;-87
2022/12/30 10:42:09;;;;;;;1.35;0.47;;;12.50;75.00;;;;;;2564204;53;21720;-86
2022/12/30 10:44:58;;;;;;;1.65;0.40;;;12.60;74.80;;;;;;2563621;53;20927;-86
2022/12/30 10:47:41;;;;;;;3.53;1.02;;;12.60;74.40;;;;;;2563203;53;20971;-86
2022/12/30 10:50:29;;;;;;;2.70;1.12;;;12.70;74.30;;;;;;2300684;53;21012;-86
2022/12/30 10:52:55;;;;;;;2.37;1.02;;;12.70;74.20;;;;;;2564841;53;20946;-85
2022/12/30 10:55:28;;;;;;;4.10;1.40;;;12.70;74.20;;;;;;2564537;53;21563;-87
2022/12/30 10:57:59;;;;;;;4.70;1.20;;;12.70;73.90;;;;;;2324253;53;20963;-85
2022/12/30 11:00:25;;;;;;;2.97;1.37;;;12.80;73.60;;;;;;2564271;53;21401;-86
2022/12/30 11:02:57;;;;;;;6.20;1.37;;;12.80;73.90;;;;;;2565030;53;20959;-86
2022/12/30 11:05:34;;;;;;;4.07;1.52;;;12.80;73.90;;;;;;2564805;53;20928;-86
2022/12/30 11:08:03;;;;;;;3.30;1.80;;;12.80;73.70;;;;;;2323605;53;20903;-86
2022/12/30 11:10:29;;;;;;;3.17;1.73;;;12.80;74.20;;;;;;2564185;53;21514;-86
2022/12/30 11:15:57;;;;;;;3.62;1.80;;;12.80;73.70;;;;;;2323905;53;20911;-84
2022/12/30 11:18:26;;;;;;;3.53;1.30;;;12.90;74.30;;;;;;2564319;53;21624;-84
2022/12/30 11:20:54;;;;;;;2.90;1.27;;;12.90;74.30;;;;;;2564421;53;20959;-86
2022/12/30 11:23:29;;;;;;;2.70;1.27;;;12.90;74.30;;;;;;2564581;53;20899;-86
2022/12/30 11:25:55;;;;;;;3.25;1.55;;;13.00;74.10;;;;;;2564813;53;20983;-87
2022/12/30 11:29:52;;;;;;;4.28;2.00;;;13.00;74.00;;;;;;2323606;53;20898;-84
2022/12/30 11:32:19;;;;;;;3.67;1.30;;;13.00;72.70;;;;;;2323768;53;20892;-88
2022/12/30 11:34:45;;;;;;;3.37;1.55;;;13.00;73.50;;;;;;2564630;53;20872;-85
2022/12/30 11:37:24;;;;;;;3.15;1.20;;;13.00;73.50;;;;;;2534780;53;20931;-86
2022/12/30 11:39:50;;;;;;;3.37;1.23;;;13.00;73.20;;;;;;2323989;53;21542;-87
2022/12/30 11:43:03;;;;;;;4.15;1.37;;;13.00;73.50;;;;;;2312895;54;20920;-85
2022/12/30 11:45:29;;;;;;;2.65;1.15;;;13.00;72.70;;;;;;2318469;54;20857;-87
2022/12/30 11:47:55;;;;;;;3.00;1.40;;;13.00;73.50;;;;;;2471640;54;3070852;-87
2022/12/30 11:50:22;;;;;;;3.10;1.65;;;13.00;73.70;;;;;;2536175;53;21021;-91
2022/12/30 11:52:52;;;;;;;3.10;1.50;;;13.10;73.80;;;;;;2291594;55;21057;-86
2022/12/30 11:55:22;;;;;;;2.70;1.20;;;13.10;73.60;;;;;;2291191;53;21051;-85
2022/12/30 11:57:49;;;;;;;2.78;1.35;;;13.10;73.60;;;;;;2287547;55;20942;-86
2022/12/30 12:00:36;;;;;;;5.20;1.65;;;13.10;73.70;;;;;;2523082;53;20995;-83
2022/12/30 12:03:16;;;;;;;5.05;1.50;;;13.20;73.50;;;;;;2525521;53;22369;-83
2022/12/30 12:05:43;;;;;;;3.83;1.58;;;13.20;73.80;;;;;;2525949;53;21615;-84
2022/12/30 12:08:18;;;;;;;3.53;1.50;;;13.20;73.80;;;;;;2525279;53;20955;-83
2022/12/30 12:10:51;;;;;;;3.65;1.50;;;13.20;73.40;;;;;;2526140;53;21311;-83
2022/12/30 12:16:03;;;;;;;2.78;1.58;;;13.20;73.30;;;;;;2525710;53;21006;-82
2022/12/30 12:18:42;;;;;;;4.22;2.45;;;13.20;73.80;;;;;;2291122;53;20963;-83
2022/12/30 12:21:42;;;;;;;3.95;2.30;;;13.20;73.30;;;;;;2294276;55;21021;-82
2022/12/30 12:24:32;;;;;;;5.28;2.65;;;13.20;72.80;;;;;;2306596;55;20993;-83
2022/12/30 12:27:08;;;;;;;7.45;2.45;;;13.20;73.20;;;;;;2524676;54;21037;-84
2022/12/30 12:29:35;;;;;;;6.05;3.22;;;13.20;73.50;;;;;;2563574;53;20933;-83
2022/12/30 12:32:57;;;;;;;5.43;3.15;;;13.30;73.90;;;;;;2298026;54;20843;-82
2022/12/30 12:37:17;;;;;;;4.85;2.60;;;13.30;72.90;;;;;;2291149;54;20972;-83
2022/12/30 12:40:15;;;;;;;3.70;1.85;;;13.30;73.40;;;;;;2523169;54;20918;-81
2022/12/30 12:43:10;;;;;;;4.12;1.60;;;13.40;73.70;;;;;;2536087;53;20985;-83
2022/12/30 12:46:10;;;;;;;5.30;1.95;;;13.40;73.70;;;;;;2529127;54;20956;-82
2022/12/30 12:51:55;;;;;;;3.55;1.67;;;13.40;73.80;;;;;;2520417;54;20951;-82
2022/12/30 12:54:58;;;;;;;4.60;2.72;;;13.40;73.80;;;;;;2520171;54;20934;-83
2022/12/30 12:58:28;;;;;;;5.93;3.20;;;13.50;73.50;;;;;;2525227;54;20982;-82
2022/12/30 13:01:27;;;;;;;7.15;4.20;;;13.60;73.30;;;;;;2528206;54;20954;-82
2022/12/30 13:04:30;;;;;;;6.80;3.75;;;13.50;73.60;;;;;;2528190;54;21041;-82
2022/12/30 13:07:17;;;;;;;6.95;3.87;;;13.60;73.60;;;;;;2294713;55;20935;-81
2022/12/30 13:09:56;;;;;;;7.57;4.30;;;13.60;73.80;;;;;;2528283;54;20998;-84
2022/12/30 13:12:35;;;;;;;7.62;4.12;;;13.60;74.40;;;;;;2527173;54;21041;-84
2022/12/30 13:15:22;;;;;;;9.13;4.43;;;13.70;73.90;;;;;;2528218;54;21095;-81
2022/12/30 13:17:48;;;;;;;7.53;4.25;;;13.60;73.30;;;;;;2529728;54;20962;-84
2022/12/30 13:20:27;;;;;;;5.97;3.17;;;13.60;73.90;;;;;;2298773;55;20991;-84
2022/12/30 13:22:53;;;;;;;3.58;1.80;;;13.60;73.30;;;;;;2519570;54;20974;-84
2022/12/30 13:25:25;;;;;;;3.67;1.42;;;13.60;73.80;;;;;;2527611;54;20962;-81
2022/12/30 13:27:53;;;;;;;3.12;1.15;;;13.60;73.70;;;;;;2529567;54;21862;-81
2022/12/30 13:30:20;;;;;;;2.28;0.90;;;13.70;73.90;;;;;;2526769;54;20969;-81
2022/12/30 13:33:10;;;;;;;2.85;0.98;;;13.60;73.90;;;;;;2528557;54;20982;-83
2022/12/30 13:38:50;;;;;;;2.15;0.98;;;13.70;73.40;;;;;;2295465;55;20951;-82
2022/12/30 13:43:37;;;;;;;1.80;0.80;;;13.70;72.70;;;;;;2527363;54;20942;-84
2022/12/30 13:46:05;;;;;;;1.73;0.70;;;13.80;72.80;;;;;;2527874;54;20950;-85
2022/12/30 13:48:33;;;;;;;1.10;0.50;;;13.90;74.30;;;;;;2527319;54;20894;-82
2022/12/30 13:51:13;;;;;;;1.95;0.80;;;13.90;74.30;;;;;;2527894;54;20958;-85
2022/12/30 13:53:50;;;;;;;3.28;0.73;;;13.90;74.00;;;;;;2296287;55;20997;-81
2022/12/30 13:56:39;;;;;;;1.75;0.70;;;13.90;73.90;;;;;;2295467;55;20953;-82
2022/12/30 13:59:06;;;;;;;1.70;0.70;;;14.00;73.40;;;;;;2296124;55;20953;-85
2022/12/30 14:01:36;;;;;;;2.05;0.70;;;14.00;74.30;;;;;;2296258;55;20961;-85
2022/12/30 14:05:02;;;;;;;1.33;0.62;;;14.00;74.10;;;;;;2529754;54;20940;-85
2022/12/30 14:11:07;;;;;;;1.75;0.80;;;13.90;72.60;;;;;;2530350;54;20936;-85
2022/12/30 14:13:38;;;;;;;2.20;0.80;;;14.10;72.80;;;;;;2530235;54;21960;-84
2022/12/30 14:16:26;;;;;;;2.17;0.73;;;14.20;74.30;;;;;;2531274;54;20973;-85
2022/12/30 14:18:53;;;;;;;1.15;0.50;;;14.20;74.10;;;;;;2296692;55;20965;-85
2022/12/30 14:21:21;;;;;;;3.20;0.80;;;14.20;74.30;;;;;;2296338;55;20957;-84
2022/12/30 14:23:52;;;;;;;2.17;0.70;;;14.20;74.30;;;;;;2529912;54;20932;-86
2022/12/30 14:26:39;;;;;;;2.00;0.90;;;14.20;74.20;;;;;;2529201;54;20941;-85
2022/12/30 14:29:21;;;;;;;1.62;0.70;;;14.30;73.40;;;;;;2296275;55;20977;-87
2022/12/30 14:31:49;;;;;;;2.00;0.80;;;14.40;73.90;;;;;;2530503;54;20969;-85
2022/12/30 14:34:38;;;;;;;1.85;0.70;;;14.40;74.50;;;;;;2529450;54;20933;-84
2022/12/30 14:37:06;;;;;;;1.45;0.60;;;14.40;73.70;;;;;;2296455;55;20961;-86
2022/12/30 14:39:33;;;;;;;1.83;0.90;;;14.40;74.50;;;;;;2529602;54;20922;-86
2022/12/30 14:42:02;;;;;;;2.42;0.70;;;14.40;74.60;;;;;;2530522;54;20885;-87